createdAt,value
2019-01-24T05:01:44.743Z,94.20
2019-01-24T05:04:19.907Z,94.10
2019-01-24T05:06:55.147Z,94.20
2019-01-24T05:09:30.154Z,94.20
2019-01-24T05:12:05.056Z,94.10
2019-01-24T05:14:40.043Z,94.10
2019-01-24T06:01:42.226Z,94.10
2019-01-24T06:04:17.724Z,94.00
2019-01-24T06:06:52.802Z,94.20
2019-01-24T06:09:27.858Z,94.30
2019-01-24T06:11:51.334Z,94.30
2019-01-24T06:14:13.766Z,94.30
2019-01-24T07:01:02.298Z,94.10
2019-01-24T07:03:37.240Z,94.00
2019-01-24T07:06:12.335Z,93.90
2019-01-24T07:08:47.483Z,93.90
2019-01-24T07:11:22.466Z,93.70
2019-01-24T07:13:57.464Z,93.70
2019-01-24T08:02:22.691Z,93.80
2019-01-24T08:04:57.762Z,93.80
2019-01-24T08:07:32.900Z,93.80
2019-01-24T08:10:08.050Z,93.80
2019-01-24T08:12:43.000Z,93.70
2019-01-24T09:02:51.085Z,91.50
2019-01-24T09:05:26.251Z,91.60
2019-01-24T09:08:01.255Z,91.60
2019-01-24T09:10:36.610Z,91.50
2019-01-24T09:13:11.662Z,91.50
2019-01-24T10:01:15.473Z,90.20
2019-01-24T10:03:50.547Z,90.10
2019-01-24T10:06:25.579Z,90.20
2019-01-24T10:09:00.683Z,89.30
2019-01-24T10:11:35.479Z,88.30
2019-01-24T10:14:10.475Z,87.80
2019-01-24T10:46:07.715Z,84.80
2019-01-24T10:48:30.192Z,84.80
2019-01-24T10:50:52.646Z,83.20
2019-01-24T10:53:15.090Z,82.30
2019-01-24T10:55:37.534Z,82.20
2019-01-24T10:58:01.482Z,81.50
2019-01-24T11:00:31.570Z,79.90
2019-01-24T11:02:54.237Z,80.70
2019-01-24T11:05:16.935Z,79.70
2019-01-24T11:07:40.696Z,77.30
2019-01-24T11:10:04.959Z,77.10
2019-01-24T11:12:28.508Z,78.40
2019-01-24T11:14:50.993Z,80.10
2019-01-24T11:40:16.180Z,82.50
2019-01-24T11:42:39.559Z,83.40
2019-01-24T11:45:01.988Z,82.90
2019-01-24T11:47:24.539Z,82.60
2019-01-24T11:49:47.134Z,83.30
2019-01-24T11:52:09.871Z,82.70
2019-01-24T11:54:32.625Z,81.90
2019-01-24T11:56:55.102Z,83.20
2019-01-24T11:59:17.594Z,83.10
2019-01-24T12:01:40.121Z,82.30
2019-01-24T12:04:02.673Z,82.10
2019-01-24T12:06:25.436Z,80.70
2019-01-24T12:08:48.184Z,81.80
2019-01-24T12:11:10.882Z,82.20
2019-01-24T12:13:33.334Z,82.00
2019-01-24T13:00:40.189Z,85.60
2019-01-24T13:03:03.053Z,85.90
2019-01-24T13:05:25.606Z,84.90
2019-01-24T13:07:48.140Z,85.30
2019-01-24T13:10:13.343Z,84.70
2019-01-24T13:12:36.065Z,84.20
2019-01-24T13:14:58.600Z,83.90
2019-01-24T14:01:11.344Z,77.60
2019-01-24T14:03:43.222Z,77.90
2019-01-24T14:06:05.679Z,78.50
2019-01-24T14:08:28.295Z,78.20
2019-01-24T14:10:50.879Z,78.60
2019-01-24T14:13:13.408Z,79.20
2019-01-24T15:01:57.574Z,85.00
2019-01-24T15:04:20.038Z,86.30
2019-01-24T15:06:43.120Z,86.30
2019-01-24T15:09:07.718Z,86.40
2019-01-24T15:11:31.951Z,86.40
2019-01-24T15:13:54.492Z,86.80
2019-01-24T16:00:42.241Z,91.50
2019-01-24T16:03:05.036Z,91.40
2019-01-24T16:05:27.687Z,91.40
2019-01-24T16:07:50.143Z,91.50
2019-01-24T16:10:13.962Z,91.60
2019-01-24T16:12:36.399Z,91.60
2019-01-24T16:14:58.873Z,91.70
2019-01-24T17:00:16.407Z,92.00
2019-01-24T17:02:39.056Z,92.40
2019-01-24T17:05:01.491Z,92.70
2019-01-24T17:07:24.170Z,92.60
2019-01-24T17:09:46.730Z,92.50
2019-01-24T17:12:09.235Z,92.40
2019-01-24T17:14:31.840Z,92.60
2019-01-24T18:01:04.897Z,93.80
2019-01-24T18:03:28.566Z,93.60
2019-01-24T18:05:51.238Z,93.40
2019-01-24T18:08:13.743Z,93.40
2019-01-24T18:10:36.192Z,93.60
2019-01-24T18:12:58.729Z,94.00
2019-01-24T19:02:16.222Z,94.30
2019-01-24T19:04:38.812Z,93.90
2019-01-24T19:07:01.519Z,94.20
2019-01-24T19:09:24.196Z,94.20
2019-01-24T19:11:46.819Z,93.80
2019-01-24T19:14:09.626Z,93.70
2019-01-24T20:00:27.578Z,94.10
2019-01-24T20:02:50.316Z,94.00
2019-01-24T20:05:14.711Z,94.20
2019-01-24T20:07:37.336Z,94.10
2019-01-24T20:10:01.172Z,94.10
2019-01-24T20:12:25.735Z,94.00
2019-01-24T20:14:48.275Z,94.00
2019-01-24T21:02:12.363Z,94.10
2019-01-24T21:04:34.877Z,94.10
2019-01-24T21:06:57.518Z,94.10
2019-01-24T21:09:20.055Z,93.80
2019-01-24T21:11:42.499Z,94.00
2019-01-24T21:14:05.519Z,94.10
